Flight Track Log - Related Links

Times and Time Zones

All times are in EDT time to prevent confusion due to time zone crossing. See the FDX3608 flight status page for this flight to view local times or setup timezone preferences in your user account.

Time Position Orientation Groundspeed Altitude Reporting Facility
EDT Latitude Longitude Course Direction KTS MPH feet Rate Location/Type
Sat 09:46:34 AM 39.8773 -104.6230 86° East 169 194 5,300  Level FlightAware ADS-B
Sat 09:46:43 AM 39.8772 -104.6130 91° East 166 191 5,600 1,680 Climbing FlightAware ADS-B
Sat 09:46:59 AM 39.8767 -104.5970 92° East 178 205 6,000 968 Climbing FlightAware ADS-B
Sat 09:47:14 AM 39.8762 -104.5790 92° East 201 231 6,100 686 Climbing FlightAware ADS-B
Sat 09:47:34 AM 39.8754 -104.5530 92° East 231 266 6,400 833 Climbing FlightAware ADS-B
Sat 09:47:50 AM 39.8747 -104.5300 92° East 254 292 6,600 1,125 Climbing FlightAware ADS-B
Sat 09:48:06 AM 39.8743 -104.5040 91° East 274 315 7,000 2,063 Climbing FlightAware ADS-B
Sat 09:48:22 AM 39.8741 -104.4780 91° East 279 321 7,700 2,323 Climbing FlightAware ADS-B
Sat 09:48:37 AM 39.8743 -104.4520 89° East 289 333 8,200 2,516 Climbing FlightAware ADS-B
Sat 09:48:53 AM 39.8749 -104.4240 88° East 290 334 9,000 2,903 Climbing FlightAware ADS-B
Sat 09:49:08 AM 39.8752 -104.3980 89° East 292 336 9,700 1,400 Climbing FlightAware ADS-B
Sat 09:49:23 AM 39.8754 -104.3700 89° East 320 368 9,700 387 Level FlightAware ADS-B
Sat 09:49:39 AM 39.8754 -104.3380 90° East 342 394 9,900 1,043 Climbing FlightAware ADS-B
Sat 09:50:09 AM 39.8765 -104.2730 89° East 372 428 10,500 1,400 Climbing FlightAware ADS-B
Sat 09:50:39 AM 39.8783 -104.2040 88° East 394 453 11,300 2,133 Climbing FlightAware ADS-B
Sat 09:50:54 AM 39.8793 -104.1680 88° East 393 452 12,100 2,800 Climbing FlightAware ADS-B
Sat 09:51:24 AM 39.8851 -104.0980 84° East 397 457 13,400 2,200 Climbing FlightAware ADS-B
Sat 09:51:54 AM 39.8899 -104.0250 85° East 410 472 14,300 2,100 Climbing FlightAware ADS-B
Sat 09:52:24 AM 39.8949 -103.9480 85° East 415 478 15,500 2,419 Climbing FlightAware ADS-B
Sat 09:52:56 AM 39.9004 -103.8710 85° East 415 478 16,800 2,129 Climbing FlightAware ADS-B
Sat 09:53:26 AM 39.9059 -103.7960 85° East 423 487 17,700 1,600 Climbing FlightAware ADS-B
Sat 09:53:56 AM 39.9118 -103.7190 84° East 436 502 18,400 1,600 Climbing FlightAware ADS-B
Sat 09:54:26 AM 39.9173 -103.6380 85° East 442 509 19,300 1,770 Climbing FlightAware ADS-B
Sat 09:54:57 AM 39.9227 -103.5580 85° East 448 516 20,200 1,770 Climbing FlightAware ADS-B
Sat 09:55:27 AM 39.9286 -103.4770 85° East 450 518 21,100 1,600 Climbing FlightAware ADS-B
Sat 09:55:57 AM 39.9340 -103.3950 85° East 456 525 21,800 1,400 Climbing FlightAware ADS-B
Sat 09:56:27 AM 39.9397 -103.3130 85° East 462 532 22,500 1,500 Climbing FlightAware ADS-B
Sat 09:56:57 AM 39.9455 -103.2270 85° East 466 536 23,300 1,672 Climbing FlightAware ADS-B
Sat 09:57:28 AM 39.9510 -103.1430 85° East 469 540 24,200 1,452 Climbing FlightAware ADS-B
Sat 09:57:59 AM 39.9565 -103.0550 85° East 476 548 24,800 1,180 Climbing FlightAware ADS-B
Sat 09:58:29 AM 39.9623 -102.9690 85° East 480 552 25,400 1,200 Climbing FlightAware ADS-B
Sat 09:58:59 AM 39.9682 -102.8820 85° East 486 559 26,000 1,082 Climbing FlightAware ADS-B
Sat 09:59:30 AM 39.9738 -102.7910 85° East 493 567 26,500 1,180 Climbing FlightAware ADS-B
Sat 10:00:00 AM 39.9792 -102.7020 85° East 494 568 27,200 1,279 Climbing FlightAware ADS-B
Sat 10:00:31 AM 39.9851 -102.6100 85° East 496 571 27,800 1,180 Climbing FlightAware ADS-B
Sat 10:01:01 AM 39.9908 -102.5200 85° East 499 574 28,400 1,200 Climbing FlightAware ADS-B
Sat 10:01:31 AM 39.9961 -102.4300 86° East 502 578 29,000 1,475 Climbing FlightAware ADS-B
Sat 10:02:02 AM 40.0013 -102.3370 86° East 496 571 29,900 1,672 Climbing FlightAware ADS-B
Sat 10:02:32 AM 40.0066 -102.2480 86° East 493 567 30,700 1,200 Climbing FlightAware ADS-B
Sat 10:03:02 AM 40.0116 -102.1550 86° East 497 572 31,100 1,082 Climbing FlightAware ADS-B
Sat 10:03:33 AM 40.0164 -102.0660 86° East 494 568 31,800 1,279 Climbing FlightAware ADS-B
Sat 10:04:03 AM 40.0217 -101.9770 86° East 491 565 32,400 1,082 Climbing FlightAware ADS-B
Sat 10:04:34 AM 40.0270 -101.8830 86° East 491 565 32,900 952 Climbing FlightAware ADS-B
Sat 10:05:06 AM 40.0322 -101.7910 86° East 493 567 33,400 1,048 Climbing FlightAware ADS-B
Sat 10:05:37 AM 40.0373 -101.6990 86° East 490 564 34,000 984 Climbing FlightAware ADS-B
Sat 10:06:07 AM 40.0423 -101.6110 86° East 496 571 34,400 774 Climbing FlightAware ADS-B
Sat 10:06:39 AM 40.0471 -101.5150 86° East 497 572 34,800 571 Climbing FlightAware ADS-B
Sat 10:07:10 AM 40.0519 -101.4220 86° East 496 571 35,000 194 Climbing FlightAware ADS-B
Sat 10:07:41 AM 40.0562 -101.3300 86° East 497 572 35,000  Level FlightAware ADS-B
Sat 10:08:12 AM 40.0609 -101.2340 86° East 498 573 35,000  Level FlightAware ADS-B
Sat 10:08:45 AM 40.0661 -101.1350 86° East 498 573 35,000  Level FlightAware ADS-B
Sat 10:09:15 AM 40.0686 -101.0661 86° East 498 573 35,000  Level Denver Center
Sat 10:10:16 AM 40.0775 -100.8933 86° East 500 575 35,000  Level Denver Center
Sat 10:11:17 AM 40.0864 -100.6922 87° East 501 577 35,000  Level Denver Center
Sat 10:12:18 AM 40.0939 -100.5192 87° East 501 577 35,000  Level Denver Center
Sat 10:13:20 AM 40.1025 -100.3175 87° East 501 577 35,000  Level Denver Center
Sat 10:14:21 AM 40.1089 -100.1453 87° East 500 575 35,000  Level Denver Center
Sat 10:15:22 AM 40.1164 -99.9728 87° East 498 573 35,000  Level Denver Center
Sat 10:16:24 AM 40.1247 -99.7656 87° East 503 579 35,000  Level Denver Center
Sat 10:17:25 AM 40.1300 -99.5822 88° East 506 582 35,000  Level Denver Center
Sat 10:18:26 AM 40.1364 -99.3992 87° East 507 583 35,000  Level Denver Center
Sat 10:19:28 AM 40.1433 -99.2164 87° East 506 582 35,000  Level Denver Center
Sat 10:20:29 AM 40.1483 -99.0319 88° East 510 587 35,000  Level Denver Center
Sat 10:21:30 AM 40.1542 -98.8469 88° East 510 587 35,000  Level Denver Center
Sat 10:22:32 AM 40.1594 -98.6628 88° East 509 586 35,000  Level Denver Center
Sat 10:23:33 AM 40.1644 -98.4767 88° East 514 592 35,000  Level Denver Center
Sat 10:24:46 AM 40.1700 -98.2172 88° East 515 593 35,000  Level Minneapolis Center
Sat 10:25:47 AM 40.1739 -98.0283 88° East 519 597 35,000  Level Minneapolis Center
Sat 10:26:49 AM 40.1775 -97.8414 88° East 518 596 35,000  Level Minneapolis Center
Sat 10:27:50 AM 40.1822 -97.6531 88° East 519 597 35,000  Level Minneapolis Center
Sat 10:28:52 AM 40.1850 -97.4639 89° East 520 598 35,000  Level Minneapolis Center
Sat 10:29:53 AM 40.1886 -97.2553 89° East 521 600 35,000  Level Minneapolis Center
Sat 10:30:54 AM 40.1917 -97.0653 89° East 524 603 35,000  Level Minneapolis Center
Sat 10:31:56 AM 40.1933 -96.9136 89° East 524 603 35,000  Level Minneapolis Center
Sat 10:38:07 AM 40.1980 -95.8240 89° East 531 611 35,000  Level FlightAware ADS-B
Sat 10:38:37 AM 40.1980 -95.7470 90° East 532 612 35,000  Level FlightAware ADS-B
Sat 10:39:17 AM 40.1980 -95.6130 90° East 533 613 35,000  Level FlightAware ADS-B
Sat 10:39:47 AM 40.1980 -95.5310 90° East 533 613 35,000  Level FlightAware ADS-B
Sat 10:40:17 AM 40.1980 -95.4480 90° East 533 613 35,000  Level FlightAware ADS-B
Sat 10:40:52 AM 40.1950 -95.3200 92° East 539 620 35,000  Level FlightAware ADS-B
Sat 10:41:27 AM 40.1910 -95.0370 91° East 537 618 35,000  Level FlightAware ADS-B
Sat 10:42:07 AM 40.1900 -94.9080 91° East 537 618 35,000  Level FlightAware ADS-B
Sat 10:42:42 AM 40.1880 -94.7810 91° East 539 620 35,000  Level FlightAware ADS-B
Sat 10:43:12 AM 40.1870 -94.6840 91° East 539 620 35,000  Level FlightAware ADS-B
Sat 10:43:47 AM 40.1850 -94.5730 91° East 539 620 35,000  Level FlightAware ADS-B
Sat 10:44:22 AM 40.1830 -94.4560 91° East 538 619 35,000  Level FlightAware ADS-B
Sat 10:44:52 AM 40.1810 -94.3590 92° East 535 616 35,000  Level FlightAware ADS-B
Sat 10:45:32 AM 40.1780 -94.2300 92° East 534 615 35,000 -75 Level FlightAware ADS-B
Sat 10:46:12 AM 40.1760 -94.1070 91° East 536 617 34,900  Descending FlightAware ADS-B
Sat 10:46:57 AM 40.1730 -93.9620 92° East 537 618 35,000 75 Climbing FlightAware ADS-B
Sat 10:47:32 AM 40.1700 -93.8420 92° East 538 619 35,000  Level FlightAware ADS-B
Sat 10:48:02 AM 40.1680 -93.7440 91° East 539 620 35,000  Level FlightAware ADS-B
Sat 10:48:47 AM 40.1650 -93.6010 92° East 540 621 35,000  Level FlightAware ADS-B
Sat 10:49:22 AM 40.1610 -93.4840 93° East 539 620 35,000  Level FlightAware ADS-B
Sat 10:50:12 AM 40.1570 -93.3170 92° East 540 621 35,000  Level FlightAware ADS-B
Sat 10:50:57 AM 40.1530 -93.1780 92° East 538 619 35,000  Level FlightAware ADS-B
Sat 10:51:37 AM 40.1490 -93.0480 92° East 539 620 35,000  Level FlightAware ADS-B
Sat 10:52:07 AM 40.1460 -92.9500 92° East 538 619 35,000  Level FlightAware ADS-B
Sat 10:52:42 AM 40.1430 -92.8330 92° East 537 618 35,000  Level FlightAware ADS-B
Sat 10:53:12 AM 40.1390 -92.7360 93° East 537 618 35,000  Level FlightAware ADS-B
Sat 10:53:52 AM 40.1350 -92.6100 92° East 537 618 35,000  Level FlightAware ADS-B
Sat 10:54:27 AM 40.1270 -92.5030 96° East 538 619 35,000  Level FlightAware ADS-B
Sat 10:55:12 AM 40.1140 -92.3620 97° East 537 618 35,000  Level FlightAware ADS-B
Sat 10:55:47 AM 40.1040 -92.2520 97° East 537 618 35,000  Level FlightAware ADS-B
Sat 10:56:22 AM 40.0930 -92.1300 97° East 536 617 35,000  Level FlightAware ADS-B
Sat 10:57:07 AM 40.0790 -91.9790 97° East 536 617 35,000  Level FlightAware ADS-B
Sat 10:57:32 AM 40.0720 -91.9080 97° East 536 617 35,000  Level FlightAware ADS-B
Sat 10:58:17 AM 40.0600 -91.7780 97° East 537 618 35,000  Level FlightAware ADS-B
Sat 10:58:57 AM 40.0460 -91.6360 97° East 536 617 35,000  Level FlightAware ADS-B
Sat 10:59:27 AM 40.0380 -91.5460 97° East 536 617 35,000  Level FlightAware ADS-B
Sat 11:00:07 AM 40.0240 -91.4020 97° East 535 616 35,000  Level FlightAware ADS-B
Sat 11:00:47 AM 40.0110 -91.2740 98° East 535 616 35,000  Level FlightAware ADS-B
Sat 11:01:32 AM 39.9970 -91.1330 97° East 535 616 35,000  Level FlightAware ADS-B
Sat 11:02:12 AM 39.9850 -91.0180 98° East 534 615 35,000  Level FlightAware ADS-B
Sat 11:02:52 AM 39.9700 -90.8780 98° East 532 612 35,000  Level FlightAware ADS-B
Sat 11:03:37 AM 39.9570 -90.7510 98° East 531 611 35,000  Level FlightAware ADS-B
Sat 11:04:17 AM 39.9430 -90.6180 98° East 529 609 35,000 -63 Level FlightAware ADS-B
Sat 11:05:12 AM 39.9240 -90.4450 98° East 527 606 34,900  Descending FlightAware ADS-B
Sat 11:05:47 AM 39.9120 -90.3260 97° East 526 605 35,000 60 Climbing FlightAware ADS-B
Sat 11:06:52 AM 39.8910 -90.1330 98° East 525 604 35,000  Level FlightAware ADS-B
Sat 11:07:32 AM 39.8760 -89.9980 98° East 524 603 35,000  Level FlightAware ADS-B
Sat 11:08:07 AM 39.8640 -89.8920 98° East 523 602 35,000 -212 Level FlightAware ADS-B
Sat 11:08:57 AM 39.8460 -89.7340 98° East 517 595 34,700 -375 Descending FlightAware ADS-B
Sat 11:09:27 AM 39.8410 -89.6500 94° East 519 597 34,500 -568 Descending FlightAware ADS-B
Sat 11:10:32 AM 39.8420 -89.4470 90° East 521 600 33,800 -750 Descending FlightAware ADS-B
Sat 11:11:27 AM 39.8420 -89.2650 90° East 521 600 33,000 -457 Descending FlightAware ADS-B
Sat 11:12:17 AM 39.8430 -89.1140 89° East 528 608 33,000  Level FlightAware ADS-B
Sat 11:12:42 AM 39.8430 -89.0380 90° East 527 606 33,000  Level FlightAware ADS-B
Sat 11:13:22 AM 39.8430 -88.9120 90° East 527 606 33,000 -494 Level FlightAware ADS-B
Sat 11:14:07 AM 39.8430 -88.7610 90° East 519 597 32,300 -1,976 Descending FlightAware ADS-B
Sat 11:14:47 AM 39.8430 -88.6360 90° East 520 598 30,200 -3,225 Descending FlightAware ADS-B
Sat 11:15:27 AM 39.8430 -88.5300 90° East 525 604 28,000 -3,440 Descending FlightAware ADS-B
Sat 11:16:02 AM 39.8430 -88.4020 90° East 531 611 25,900 -2,682 Descending FlightAware ADS-B
Sat 11:16:52 AM 39.8410 -88.2520 91° East 508 585 24,200 -1,200 Descending FlightAware ADS-B
Sat 11:17:37 AM 39.8400 -88.1130 90° East 483 556 24,000 -150 Descending FlightAware ADS-B
Sat 11:18:12 AM 39.8390 -88.0150 91° East 481 554 24,000 -720 Level FlightAware ADS-B
Sat 11:19:17 AM 39.8380 -87.8180 90° East 484 557 22,800 -1,886 Descending FlightAware ADS-B
Sat 11:19:57 AM 39.8360 -87.7040 91° East 482 555 20,700 -2,640 Descending FlightAware ADS-B
Sat 11:20:32 AM 39.8360 -87.6020 90° East 461 531 19,500 -2,143 Descending FlightAware ADS-B
Sat 11:21:07 AM 39.8350 -87.5100 91° East 447 514 18,200 -2,200 Descending FlightAware ADS-B
Sat 11:21:32 AM 39.8330 -87.4420 92° East 463 533 17,300 -2,123 Descending FlightAware ADS-B
Sat 11:22:12 AM 39.8320 -87.3290 91° East 444 511 15,900 -2,329 Descending FlightAware ADS-B
Sat 11:22:57 AM 39.8300 -87.2160 91° East 433 498 14,000 -2,471 Descending FlightAware ADS-B
Sat 11:23:37 AM 39.8290 -87.1110 91° East 420 483 12,400 -1,263 Descending FlightAware ADS-B
Sat 11:24:32 AM 39.8260 -86.9790 92° East 414 476 12,000 -253 Descending FlightAware ADS-B
Sat 11:25:12 AM 39.8250 -86.8940 91° East 414 476 12,000  Level FlightAware ADS-B
Sat 11:25:52 AM 39.8240 -86.8090 91° East 414 476 12,000 -1,627 Level FlightAware ADS-B
Sat 11:26:11 AM 39.8167 -86.7167 91° East 409 471 10,400 -1,875 Descending Indianapolis TRACON
Sat 11:26:56 AM 39.8200 -86.6517 86° East 398 458 10,000 -561 Descending Indianapolis Center
Sat 11:27:58 AM 39.8175 -86.5117 91° East 333 383 9,400 -1,024 Descending Indianapolis Center
Sat 11:28:59 AM 39.8158 -86.4047 91° East 305 351 7,900 -1,902 Descending Indianapolis Center
Sat 11:30:01 AM 39.8206 -86.3008 87° East 290 334 5,500 -1,476 Descending Indianapolis Center
Sat 11:31:05 AM 39.8833 -86.2333 40° Northeast 238 274 4,800 -726 Descending Indianapolis TRACON
Sat 11:32:05 AM 39.9167 -86.1667 57° Northeast 235 270 4,000 -800 Descending Indianapolis TRACON
Sat 11:33:05 AM 39.8667 -86.1333 153° Southeast 198 228 3,200 -650 Descending Indianapolis TRACON
Sat 11:34:05 AM 39.8167 -86.1500 194° South 170 196 2,700 -333 Descending Indianapolis TRACON
Sat 11:35:11 AM 39.7833 -86.2000 229° Southwest 158 182 2,500 -476 Descending Indianapolis TRACON
Sat 11:36:11 AM 39.7500 -86.2333 218° Southwest 138 159 1,700 -564 Descending Indianapolis TRACON
Sat 11:38:12 AM 39.6986 -86.3078 228° Southwest 142 163 800 -446 Descending Indianapolis Center

Login

Don't have an account? Register now (free) for customized features, flight alerts, and more!